sensor_id;sensor_type;location;lat;lon;timestamp;P1;durP1;ratioP1;P2;durP2;ratioP2
67737;SDS011;54534;43.612;1.572;2022-08-21T00:01:20;0.70;;;0.70;;
67737;SDS011;54534;43.612;1.572;2022-08-21T00:03:48;1.10;;;0.83;;
67737;SDS011;54534;43.612;1.572;2022-08-21T00:06:13;0.50;;;0.50;;
67737;SDS011;54534;43.612;1.572;2022-08-21T00:08:39;4.30;;;0.80;;
67737;SDS011;54534;43.612;1.572;2022-08-21T00:11:05;1.23;;;0.70;;
67737;SDS011;54534;43.612;1.572;2022-08-21T00:13:31;0.80;;;0.70;;
67737;SDS011;54534;43.612;1.572;2022-08-21T00:15:57;0.80;;;0.77;;
67737;SDS011;54534;43.612;1.572;2022-08-21T00:18:24;0.80;;;0.80;;
67737;SDS011;54534;43.612;1.572;2022-08-21T00:20:50;1.77;;;0.70;;
67737;SDS011;54534;43.612;1.572;2022-08-21T00:23:15;0.80;;;0.80;;
67737;SDS011;54534;43.612;1.572;2022-08-21T00:25:41;2.10;;;0.87;;
67737;SDS011;54534;43.612;1.572;2022-08-21T00:28:08;0.90;;;0.90;;
67737;SDS011;54534;43.612;1.572;2022-08-21T00:30:33;0.70;;;0.70;;
67737;SDS011;54534;43.612;1.572;2022-08-21T00:32:59;0.50;;;0.50;;
67737;SDS011;54534;43.612;1.572;2022-08-21T00:35:30;1.33;;;0.90;;
67737;SDS011;54534;43.612;1.572;2022-08-21T00:37:57;0.50;;;0.50;;
67737;SDS011;54534;43.612;1.572;2022-08-21T00:40:29;1.57;;;0.87;;
67737;SDS011;54534;43.612;1.572;2022-08-21T00:42:58;1.47;;;0.70;;
67737;SDS011;54534;43.612;1.572;2022-08-21T00:45:23;0.80;;;0.70;;
67737;SDS011;54534;43.612;1.572;2022-08-21T00:47:50;1.03;;;0.70;;
67737;SDS011;54534;43.612;1.572;2022-08-21T00:50:17;0.70;;;0.70;;
67737;SDS011;54534;43.612;1.572;2022-08-21T00:52:43;0.60;;;0.60;;
67737;SDS011;54534;43.612;1.572;2022-08-21T00:55:10;1.50;;;0.83;;
67737;SDS011;54534;43.612;1.572;2022-08-21T00:57:39;2.53;;;0.80;;
67737;SDS011;54534;43.612;1.572;2022-08-21T01:00:10;1.43;;;0.97;;
67737;SDS011;54534;43.612;1.572;2022-08-21T01:02:39;1.20;;;0.80;;
67737;SDS011;54534;43.612;1.572;2022-08-21T01:05:05;0.70;;;0.70;;
67737;SDS011;54534;43.612;1.572;2022-08-21T01:07:31;0.70;;;0.67;;
67737;SDS011;54534;43.612;1.572;2022-08-21T01:09:57;0.70;;;0.70;;
67737;SDS011;54534;43.612;1.572;2022-08-21T01:12:22;1.23;;;0.97;;
67737;SDS011;54534;43.612;1.572;2022-08-21T01:14:48;1.63;;;0.90;;
67737;SDS011;54534;43.612;1.572;2022-08-21T01:17:14;1.90;;;0.70;;
67737;SDS011;54534;43.612;1.572;2022-08-21T01:19:41;0.50;;;0.50;;
67737;SDS011;54534;43.612;1.572;2022-08-21T01:22:07;0.80;;;0.80;;
67737;SDS011;54534;43.612;1.572;2022-08-21T01:24:33;0.87;;;0.63;;
67737;SDS011;54534;43.612;1.572;2022-08-21T01:26:59;0.87;;;0.73;;
67737;SDS011;54534;43.612;1.572;2022-08-21T01:32:09;1.23;;;0.77;;
67737;SDS011;54534;43.612;1.572;2022-08-21T01:34:42;1.70;;;0.77;;
67737;SDS011;54534;43.612;1.572;2022-08-21T01:37:09;2.08;;;0.73;;
67737;SDS011;54534;43.612;1.572;2022-08-21T01:39:36;2.43;;;0.77;;
67737;SDS011;54534;43.612;1.572;2022-08-21T01:42:03;0.80;;;0.80;;
67737;SDS011;54534;43.612;1.572;2022-08-21T01:44:29;1.03;;;0.73;;
67737;SDS011;54534;43.612;1.572;2022-08-21T01:46:55;0.90;;;0.90;;
67737;SDS011;54534;43.612;1.572;2022-08-21T01:49:22;1.13;;;0.90;;
67737;SDS011;54534;43.612;1.572;2022-08-21T01:51:48;1.33;;;0.67;;
67737;SDS011;54534;43.612;1.572;2022-08-21T01:54:13;0.90;;;0.70;;
67737;SDS011;54534;43.612;1.572;2022-08-21T01:56:40;1.13;;;0.83;;
67737;SDS011;54534;43.612;1.572;2022-08-21T01:59:07;0.77;;;0.75;;
67737;SDS011;54534;43.612;1.572;2022-08-21T02:01:34;1.87;;;0.70;;
67737;SDS011;54534;43.612;1.572;2022-08-21T02:03:59;1.13;;;0.83;;
67737;SDS011;54534;43.612;1.572;2022-08-21T02:06:25;3.90;;;0.80;;
67737;SDS011;54534;43.612;1.572;2022-08-21T02:08:51;0.90;;;0.90;;
67737;SDS011;54534;43.612;1.572;2022-08-21T02:11:17;0.70;;;0.70;;
67737;SDS011;54534;43.612;1.572;2022-08-21T02:13:43;1.10;;;0.97;;
67737;SDS011;54534;43.612;1.572;2022-08-21T02:16:09;1.17;;;0.90;;
67737;SDS011;54534;43.612;1.572;2022-08-21T02:18:35;1.80;;;0.70;;
67737;SDS011;54534;43.612;1.572;2022-08-21T02:21:01;1.57;;;0.80;;
67737;SDS011;54534;43.612;1.572;2022-08-21T02:23:27;0.80;;;0.80;;
67737;SDS011;54534;43.612;1.572;2022-08-21T02:25:54;4.90;;;0.83;;
67737;SDS011;54534;43.612;1.572;2022-08-21T02:28:21;1.57;;;0.73;;
67737;SDS011;54534;43.612;1.572;2022-08-21T02:30:47;1.87;;;1.10;;
67737;SDS011;54534;43.612;1.572;2022-08-21T02:33:13;2.17;;;1.10;;
67737;SDS011;54534;43.612;1.572;2022-08-21T02:35:40;2.00;;;0.80;;
67737;SDS011;54534;43.612;1.572;2022-08-21T02:38:08;1.70;;;0.80;;
67737;SDS011;54534;43.612;1.572;2022-08-21T02:40:36;0.80;;;0.80;;
67737;SDS011;54534;43.612;1.572;2022-08-21T02:43:03;1.00;;;0.80;;
67737;SDS011;54534;43.612;1.572;2022-08-21T02:45:30;0.70;;;0.70;;
67737;SDS011;54534;43.612;1.572;2022-08-21T02:47:58;0.97;;;0.90;;
67737;SDS011;54534;43.612;1.572;2022-08-21T02:50:29;1.93;;;1.00;;
67737;SDS011;54534;43.612;1.572;2022-08-21T02:53:07;0.90;;;0.90;;
67737;SDS011;54534;43.612;1.572;2022-08-21T02:55:33;1.03;;;0.93;;
67737;SDS011;54534;43.612;1.572;2022-08-21T02:58:03;2.07;;;1.00;;
67737;SDS011;54534;43.612;1.572;2022-08-21T03:02:57;2.70;;;0.87;;
67737;SDS011;54534;43.612;1.572;2022-08-21T03:05:24;1.23;;;0.80;;
67737;SDS011;54534;43.612;1.572;2022-08-21T03:07:51;1.20;;;0.83;;
67737;SDS011;54534;43.612;1.572;2022-08-21T03:10:17;3.60;;;1.23;;
67737;SDS011;54534;43.612;1.572;2022-08-21T03:12:45;0.70;;;0.70;;
67737;SDS011;54534;43.612;1.572;2022-08-21T03:15:11;1.87;;;1.10;;
67737;SDS011;54534;43.612;1.572;2022-08-21T03:17:38;1.37;;;1.00;;
67737;SDS011;54534;43.612;1.572;2022-08-21T03:20:04;1.23;;;1.00;;
67737;SDS011;54534;43.612;1.572;2022-08-21T03:22:30;4.10;;;1.20;;
67737;SDS011;54534;43.612;1.572;2022-08-21T03:24:57;0.87;;;0.80;;
67737;SDS011;54534;43.612;1.572;2022-08-21T03:27:23;1.23;;;1.00;;
67737;SDS011;54534;43.612;1.572;2022-08-21T03:29:49;3.40;;;0.73;;
67737;SDS011;54534;43.612;1.572;2022-08-21T03:32:15;0.93;;;0.80;;
67737;SDS011;54534;43.612;1.572;2022-08-21T03:34:40;1.17;;;1.07;;
67737;SDS011;54534;43.612;1.572;2022-08-21T03:37:06;3.83;;;1.00;;
67737;SDS011;54534;43.612;1.572;2022-08-21T03:39:32;1.33;;;1.13;;
67737;SDS011;54534;43.612;1.572;2022-08-21T03:41:59;1.20;;;0.90;;
67737;SDS011;54534;43.612;1.572;2022-08-21T03:44:25;1.00;;;0.80;;
67737;SDS011;54534;43.612;1.572;2022-08-21T03:46:53;0.80;;;0.80;;
67737;SDS011;54534;43.612;1.572;2022-08-21T03:49:19;1.77;;;1.00;;
67737;SDS011;54534;43.612;1.572;2022-08-21T03:51:45;1.00;;;0.90;;
67737;SDS011;54534;43.612;1.572;2022-08-21T03:54:10;1.53;;;1.10;;
67737;SDS011;54534;43.612;1.572;2022-08-21T03:56:35;1.27;;;1.10;;
67737;SDS011;54534;43.612;1.572;2022-08-21T03:59:01;0.90;;;0.90;;
67737;SDS011;54534;43.612;1.572;2022-08-21T04:01:27;1.27;;;1.00;;
67737;SDS011;54534;43.612;1.572;2022-08-21T04:03:53;2.60;;;0.90;;
67737;SDS011;54534;43.612;1.572;2022-08-21T04:06:18;2.07;;;1.13;;
67737;SDS011;54534;43.612;1.572;2022-08-21T04:08:43;2.80;;;1.70;;
67737;SDS011;54534;43.612;1.572;2022-08-21T04:11:09;2.37;;;1.20;;
67737;SDS011;54534;43.612;1.572;2022-08-21T04:13:37;1.17;;;1.07;;
67737;SDS011;54534;43.612;1.572;2022-08-21T04:16:03;1.40;;;1.30;;
67737;SDS011;54534;43.612;1.572;2022-08-21T04:18:29;1.07;;;0.83;;
67737;SDS011;54534;43.612;1.572;2022-08-21T04:20:55;1.30;;;1.10;;
67737;SDS011;54534;43.612;1.572;2022-08-21T04:23:22;1.57;;;1.20;;
67737;SDS011;54534;43.612;1.572;2022-08-21T04:25:48;2.73;;;1.30;;
67737;SDS011;54534;43.612;1.572;2022-08-21T04:28:14;2.10;;;1.20;;
67737;SDS011;54534;43.612;1.572;2022-08-21T04:30:40;2.90;;;1.30;;
67737;SDS011;54534;43.612;1.572;2022-08-21T04:33:05;1.43;;;1.10;;
67737;SDS011;54534;43.612;1.572;2022-08-21T04:35:31;1.60;;;1.13;;
67737;SDS011;54534;43.612;1.572;2022-08-21T04:37:56;1.77;;;0.90;;
67737;SDS011;54534;43.612;1.572;2022-08-21T04:40:23;2.13;;;1.07;;
67737;SDS011;54534;43.612;1.572;2022-08-21T04:42:53;0.80;;;0.80;;
67737;SDS011;54534;43.612;1.572;2022-08-21T04:45:34;2.83;;;1.20;;
67737;SDS011;54534;43.612;1.572;2022-08-21T04:48:02;0.90;;;0.90;;
67737;SDS011;54534;43.612;1.572;2022-08-21T04:50:47;1.17;;;1.03;;
67737;SDS011;54534;43.612;1.572;2022-08-21T04:56:07;4.25;;;1.30;;
67737;SDS011;54534;43.612;1.572;2022-08-21T04:58:36;2.27;;;1.47;;
67737;SDS011;54534;43.612;1.572;2022-08-21T05:01:03;1.90;;;1.70;;
67737;SDS011;54534;43.612;1.572;2022-08-21T05:03:32;1.95;;;1.55;;
67737;SDS011;54534;43.612;1.572;2022-08-21T05:05:59;1.70;;;1.60;;
67737;SDS011;54534;43.612;1.572;2022-08-21T05:08:25;2.00;;;1.53;;
67737;SDS011;54534;43.612;1.572;2022-08-21T05:10:53;3.03;;;1.60;;
67737;SDS011;54534;43.612;1.572;2022-08-21T05:13:19;2.80;;;1.83;;
67737;SDS011;54534;43.612;1.572;2022-08-21T05:15:45;1.80;;;1.70;;
67737;SDS011;54534;43.612;1.572;2022-08-21T05:18:11;2.47;;;1.70;;
67737;SDS011;54534;43.612;1.572;2022-08-21T05:20:37;4.13;;;1.50;;
67737;SDS011;54534;43.612;1.572;2022-08-21T05:23:09;2.80;;;1.83;;
67737;SDS011;54534;43.612;1.572;2022-08-21T05:25:36;4.87;;;1.50;;
67737;SDS011;54534;43.612;1.572;2022-08-21T05:28:03;1.90;;;1.60;;
67737;SDS011;54534;43.612;1.572;2022-08-21T05:30:28;3.57;;;1.67;;
67737;SDS011;54534;43.612;1.572;2022-08-21T05:32:57;2.67;;;1.60;;
67737;SDS011;54534;43.612;1.572;2022-08-21T05:35:24;1.40;;;1.30;;
67737;SDS011;54534;43.612;1.572;2022-08-21T05:37:49;1.70;;;1.40;;
67737;SDS011;54534;43.612;1.572;2022-08-21T05:40:15;2.27;;;1.50;;
67737;SDS011;54534;43.612;1.572;2022-08-21T05:42:40;3.43;;;1.37;;
67737;SDS011;54534;43.612;1.572;2022-08-21T05:45:06;1.60;;;1.50;;
67737;SDS011;54534;43.612;1.572;2022-08-21T05:47:32;2.30;;;1.40;;
67737;SDS011;54534;43.612;1.572;2022-08-21T05:49:57;1.17;;;1.07;;
67737;SDS011;54534;43.612;1.572;2022-08-21T05:52:23;1.20;;;1.10;;
67737;SDS011;54534;43.612;1.572;2022-08-21T05:54:48;3.37;;;1.47;;
67737;SDS011;54534;43.612;1.572;2022-08-21T05:57:14;4.50;;;1.27;;
67737;SDS011;54534;43.612;1.572;2022-08-21T05:59:40;5.33;;;1.17;;
67737;SDS011;54534;43.612;1.572;2022-08-21T06:02:05;1.40;;;1.30;;
67737;SDS011;54534;43.612;1.572;2022-08-21T06:04:35;1.20;;;1.10;;
67737;SDS011;54534;43.612;1.572;2022-08-21T06:07:01;2.30;;;1.40;;
67737;SDS011;54534;43.612;1.572;2022-08-21T06:09:26;2.00;;;1.30;;
67737;SDS011;54534;43.612;1.572;2022-08-21T06:11:52;0.97;;;0.93;;
67737;SDS011;54534;43.612;1.572;2022-08-21T06:14:17;1.60;;;1.10;;
67737;SDS011;54534;43.612;1.572;2022-08-21T06:16:43;2.23;;;1.10;;
67737;SDS011;54534;43.612;1.572;2022-08-21T06:19:08;1.43;;;1.17;;
67737;SDS011;54534;43.612;1.572;2022-08-21T06:21:34;1.20;;;1.10;;
67737;SDS011;54534;43.612;1.572;2022-08-21T06:23:59;2.77;;;1.20;;
67737;SDS011;54534;43.612;1.572;2022-08-21T06:26:25;1.20;;;1.00;;
67737;SDS011;54534;43.612;1.572;2022-08-21T06:28:50;3.50;;;1.17;;
67737;SDS011;54534;43.612;1.572;2022-08-21T06:31:21;3.63;;;0.73;;
67737;SDS011;54534;43.612;1.572;2022-08-21T06:33:48;3.43;;;1.30;;
67737;SDS011;54534;43.612;1.572;2022-08-21T06:36:14;6.07;;;1.20;;
67737;SDS011;54534;43.612;1.572;2022-08-21T06:38:40;2.70;;;1.10;;
67737;SDS011;54534;43.612;1.572;2022-08-21T06:41:06;2.87;;;1.30;;
67737;SDS011;54534;43.612;1.572;2022-08-21T06:43:32;2.60;;;1.60;;
67737;SDS011;54534;43.612;1.572;2022-08-21T06:45:57;2.30;;;1.10;;
67737;SDS011;54534;43.612;1.572;2022-08-21T06:48:23;1.50;;;1.10;;
67737;SDS011;54534;43.612;1.572;2022-08-21T06:50:48;2.80;;;1.47;;
67737;SDS011;54534;43.612;1.572;2022-08-21T06:53:16;4.60;;;1.13;;
67737;SDS011;54534;43.612;1.572;2022-08-21T06:55:43;1.85;;;1.02;;
67737;SDS011;54534;43.612;1.572;2022-08-21T06:58:09;2.70;;;1.37;;
67737;SDS011;54534;43.612;1.572;2022-08-21T07:00:35;3.20;;;1.20;;
67737;SDS011;54534;43.612;1.572;2022-08-21T07:03:04;1.20;;;1.10;;
67737;SDS011;54534;43.612;1.572;2022-08-21T07:05:29;1.10;;;1.07;;
67737;SDS011;54534;43.612;1.572;2022-08-21T07:07:55;0.90;;;0.80;;
67737;SDS011;54534;43.612;1.572;2022-08-21T07:10:22;1.90;;;1.00;;
67737;SDS011;54534;43.612;1.572;2022-08-21T07:12:49;1.17;;;0.90;;
67737;SDS011;54534;43.612;1.572;2022-08-21T07:15:15;1.20;;;1.10;;
67737;SDS011;54534;43.612;1.572;2022-08-21T07:17:40;1.97;;;1.10;;
67737;SDS011;54534;43.612;1.572;2022-08-21T07:20:06;8.23;;;1.53;;
67737;SDS011;54534;43.612;1.572;2022-08-21T07:22:32;2.53;;;1.40;;
67737;SDS011;54534;43.612;1.572;2022-08-21T07:24:58;3.73;;;1.23;;
67737;SDS011;54534;43.612;1.572;2022-08-21T07:27:24;2.63;;;0.97;;
67737;SDS011;54534;43.612;1.572;2022-08-21T07:29:49;2.77;;;1.10;;
67737;SDS011;54534;43.612;1.572;2022-08-21T07:32:14;0.93;;;0.80;;
67737;SDS011;54534;43.612;1.572;2022-08-21T07:34:40;1.37;;;1.00;;
67737;SDS011;54534;43.612;1.572;2022-08-21T07:37:06;0.93;;;0.93;;
67737;SDS011;54534;43.612;1.572;2022-08-21T07:39:31;3.37;;;1.00;;
67737;SDS011;54534;43.612;1.572;2022-08-21T07:41:57;4.13;;;1.03;;
67737;SDS011;54534;43.612;1.572;2022-08-21T07:44:22;4.10;;;1.30;;
67737;SDS011;54534;43.612;1.572;2022-08-21T07:46:48;2.23;;;1.00;;
67737;SDS011;54534;43.612;1.572;2022-08-21T07:49:13;3.30;;;1.20;;
67737;SDS011;54534;43.612;1.572;2022-08-21T07:51:38;1.40;;;1.10;;
67737;SDS011;54534;43.612;1.572;2022-08-21T07:54:04;2.47;;;0.80;;
67737;SDS011;54534;43.612;1.572;2022-08-21T07:56:30;1.97;;;0.90;;
67737;SDS011;54534;43.612;1.572;2022-08-21T07:58:56;1.93;;;0.90;;
67737;SDS011;54534;43.612;1.572;2022-08-21T08:01:23;1.00;;;0.90;;
67737;SDS011;54534;43.612;1.572;2022-08-21T08:03:49;2.23;;;1.10;;
67737;SDS011;54534;43.612;1.572;2022-08-21T08:06:14;3.50;;;0.90;;
67737;SDS011;54534;43.612;1.572;2022-08-21T08:08:41;3.33;;;0.93;;
67737;SDS011;54534;43.612;1.572;2022-08-21T08:11:08;2.77;;;0.93;;
67737;SDS011;54534;43.612;1.572;2022-08-21T08:13:42;1.37;;;0.83;;
67737;SDS011;54534;43.612;1.572;2022-08-21T08:16:10;1.20;;;0.90;;
67737;SDS011;54534;43.612;1.572;2022-08-21T08:18:35;0.80;;;0.80;;
67737;SDS011;54534;43.612;1.572;2022-08-21T08:21:01;1.37;;;1.00;;
67737;SDS011;54534;43.612;1.572;2022-08-21T08:23:27;0.93;;;0.90;;
67737;SDS011;54534;43.612;1.572;2022-08-21T08:25:52;2.40;;;1.00;;
67737;SDS011;54534;43.612;1.572;2022-08-21T08:28:18;1.80;;;1.20;;
67737;SDS011;54534;43.612;1.572;2022-08-21T08:30:44;0.90;;;0.90;;
67737;SDS011;54534;43.612;1.572;2022-08-21T08:33:10;0.77;;;0.77;;
67737;SDS011;54534;43.612;1.572;2022-08-21T08:35:36;5.33;;;0.80;;
67737;SDS011;54534;43.612;1.572;2022-08-21T08:38:02;1.70;;;1.10;;
67737;SDS011;54534;43.612;1.572;2022-08-21T08:40:32;0.80;;;0.80;;
67737;SDS011;54534;43.612;1.572;2022-08-21T08:43:06;2.25;;;0.80;;
67737;SDS011;54534;43.612;1.572;2022-08-21T08:45:33;1.60;;;1.00;;
67737;SDS011;54534;43.612;1.572;2022-08-21T08:48:02;3.20;;;1.10;;
67737;SDS011;54534;43.612;1.572;2022-08-21T08:53:27;1.57;;;1.17;;
67737;SDS011;54534;43.612;1.572;2022-08-21T08:55:52;1.00;;;0.90;;
67737;SDS011;54534;43.612;1.572;2022-08-21T08:58:20;1.07;;;0.97;;
67737;SDS011;54534;43.612;1.572;2022-08-21T09:00:49;2.70;;;0.80;;
67737;SDS011;54534;43.612;1.572;2022-08-21T09:03:16;1.07;;;0.90;;
67737;SDS011;54534;43.612;1.572;2022-08-21T09:05:44;1.87;;;0.90;;
67737;SDS011;54534;43.612;1.572;2022-08-21T09:11:40;4.00;;;0.90;;
67737;SDS011;54534;43.612;1.572;2022-08-21T09:14:08;2.43;;;1.17;;
67737;SDS011;54534;43.612;1.572;2022-08-21T09:17:02;5.50;;;1.47;;
67737;SDS011;54534;43.612;1.572;2022-08-21T09:19:55;0.80;;;0.80;;
67737;SDS011;54534;43.612;1.572;2022-08-21T09:25:00;1.60;;;0.73;;
67737;SDS011;54534;43.612;1.572;2022-08-21T09:27:33;1.57;;;0.90;;
67737;SDS011;54534;43.612;1.572;2022-08-21T09:29:59;2.17;;;0.83;;
67737;SDS011;54534;43.612;1.572;2022-08-21T09:32:25;3.67;;;0.87;;
67737;SDS011;54534;43.612;1.572;2022-08-21T09:34:57;2.35;;;1.00;;
67737;SDS011;54534;43.612;1.572;2022-08-21T09:37:25;6.30;;;1.00;;
67737;SDS011;54534;43.612;1.572;2022-08-21T09:39:54;11.38;;;0.95;;
67737;SDS011;54534;43.612;1.572;2022-08-21T09:42:25;2.03;;;1.23;;
67737;SDS011;54534;43.612;1.572;2022-08-21T09:47:51;3.40;;;1.07;;
67737;SDS011;54534;43.612;1.572;2022-08-21T09:50:22;2.73;;;0.90;;
67737;SDS011;54534;43.612;1.572;2022-08-21T09:52:53;2.50;;;1.03;;
67737;SDS011;54534;43.612;1.572;2022-08-21T09:55:28;2.67;;;1.07;;
67737;SDS011;54534;43.612;1.572;2022-08-21T09:58:16;2.27;;;0.80;;
67737;SDS011;54534;43.612;1.572;2022-08-21T10:00:43;0.70;;;0.70;;
67737;SDS011;54534;43.612;1.572;2022-08-21T10:03:13;0.80;;;0.60;;
67737;SDS011;54534;43.612;1.572;2022-08-21T10:05:39;1.63;;;0.70;;
67737;SDS011;54534;43.612;1.572;2022-08-21T10:08:05;3.20;;;0.90;;
67737;SDS011;54534;43.612;1.572;2022-08-21T10:10:42;1.33;;;0.70;;
67737;SDS011;54534;43.612;1.572;2022-08-21T10:13:11;2.97;;;1.20;;
67737;SDS011;54534;43.612;1.572;2022-08-21T10:31:57;0.80;;;0.80;;
67737;SDS011;54534;43.612;1.572;2022-08-21T10:38:01;2.10;;;0.90;;
67737;SDS011;54534;43.612;1.572;2022-08-21T10:40:36;2.30;;;0.90;;
67737;SDS011;54534;43.612;1.572;2022-08-21T10:49:21;1.43;;;0.70;;
67737;SDS011;54534;43.612;1.572;2022-08-21T10:51:56;2.80;;;0.63;;
67737;SDS011;54534;43.612;1.572;2022-08-21T10:57:16;0.63;;;0.63;;
67737;SDS011;54534;43.612;1.572;2022-08-21T10:59:51;0.60;;;0.60;;
67737;SDS011;54534;43.612;1.572;2022-08-21T11:02:36;0.80;;;0.70;;
67737;SDS011;54534;43.612;1.572;2022-08-21T11:05:17;0.87;;;0.60;;
67737;SDS011;54534;43.612;1.572;2022-08-21T11:07:53;0.50;;;0.50;;
67737;SDS011;54534;43.612;1.572;2022-08-21T11:13:15;1.37;;;0.60;;
67737;SDS011;54534;43.612;1.572;2022-08-21T11:27:40;0.60;;;0.60;;
67737;SDS011;54534;43.612;1.572;2022-08-21T11:30:10;0.87;;;0.60;;
67737;SDS011;54534;43.612;1.572;2022-08-21T11:35:30;0.60;;;0.60;;
67737;SDS011;54534;43.612;1.572;2022-08-21T11:38:11;0.40;;;0.40;;
67737;SDS011;54534;43.612;1.572;2022-08-21T11:41:03;0.60;;;0.60;;
67737;SDS011;54534;43.612;1.572;2022-08-21T11:43:47;0.83;;;0.70;;
67737;SDS011;54534;43.612;1.572;2022-08-21T11:51:28;0.50;;;0.50;;
67737;SDS011;54534;43.612;1.572;2022-08-21T11:56:59;0.47;;;0.40;;
67737;SDS011;54534;43.612;1.572;2022-08-21T11:59:43;0.60;;;0.60;;
67737;SDS011;54534;43.612;1.572;2022-08-21T12:04:42;1.07;;;0.63;;
67737;SDS011;54534;43.612;1.572;2022-08-21T12:07:16;0.60;;;0.40;;
67737;SDS011;54534;43.612;1.572;2022-08-21T12:09:54;0.50;;;0.50;;
67737;SDS011;54534;43.612;1.572;2022-08-21T12:12:26;0.50;;;0.50;;
67737;SDS011;54534;43.612;1.572;2022-08-21T12:15:15;0.77;;;0.60;;
67737;SDS011;54534;43.612;1.572;2022-08-21T12:18:27;0.57;;;0.57;;
67737;SDS011;54534;43.612;1.572;2022-08-21T12:23:58;0.50;;;0.50;;
67737;SDS011;54534;43.612;1.572;2022-08-21T12:26:51;0.60;;;0.60;;
67737;SDS011;54534;43.612;1.572;2022-08-21T12:31:52;0.53;;;0.33;;
67737;SDS011;54534;43.612;1.572;2022-08-21T12:34:52;1.23;;;0.60;;
67737;SDS011;54534;43.612;1.572;2022-08-21T12:37:42;1.13;;;0.50;;
67737;SDS011;54534;43.612;1.572;2022-08-21T12:42:48;0.30;;;0.30;;
67737;SDS011;54534;43.612;1.572;2022-08-21T12:45:28;0.60;;;0.60;;
67737;SDS011;54534;43.612;1.572;2022-08-21T12:50:40;1.20;;;0.70;;
67737;SDS011;54534;43.612;1.572;2022-08-21T12:53:15;0.40;;;0.40;;
67737;SDS011;54534;43.612;1.572;2022-08-21T12:55:52;0.63;;;0.63;;
67737;SDS011;54534;43.612;1.572;2022-08-21T12:58:18;0.50;;;0.50;;
67737;SDS011;54534;43.612;1.572;2022-08-21T13:00:52;0.43;;;0.43;;
67737;SDS011;54534;43.612;1.572;2022-08-21T13:03:21;0.50;;;0.50;;
67737;SDS011;54534;43.612;1.572;2022-08-21T13:05:47;0.40;;;0.40;;
67737;SDS011;54534;43.612;1.572;2022-08-21T13:08:13;0.67;;;0.50;;
67737;SDS011;54534;43.612;1.572;2022-08-21T13:10:39;0.60;;;0.60;;
67737;SDS011;54534;43.612;1.572;2022-08-21T13:13:14;0.60;;;0.60;;
67737;SDS011;54534;43.612;1.572;2022-08-21T13:15:44;0.45;;;0.40;;
67737;SDS011;54534;43.612;1.572;2022-08-21T13:18:18;0.50;;;0.50;;
67737;SDS011;54534;43.612;1.572;2022-08-21T13:20:48;0.50;;;0.50;;
67737;SDS011;54534;43.612;1.572;2022-08-21T13:23:27;0.50;;;0.47;;
67737;SDS011;54534;43.612;1.572;2022-08-21T13:25:54;0.40;;;0.40;;
67737;SDS011;54534;43.612;1.572;2022-08-21T13:28:20;0.40;;;0.40;;
67737;SDS011;54534;43.612;1.572;2022-08-21T13:30:50;0.40;;;0.40;;
67737;SDS011;54534;43.612;1.572;2022-08-21T13:33:20;0.60;;;0.60;;
67737;SDS011;54534;43.612;1.572;2022-08-21T13:35:50;0.40;;;0.40;;
67737;SDS011;54534;43.612;1.572;2022-08-21T13:38:16;0.63;;;0.50;;
67737;SDS011;54534;43.612;1.572;2022-08-21T13:40:51;0.47;;;0.47;;
67737;SDS011;54534;43.612;1.572;2022-08-21T13:43:24;0.70;;;0.60;;
67737;SDS011;54534;43.612;1.572;2022-08-21T13:45:54;0.40;;;0.40;;
67737;SDS011;54534;43.612;1.572;2022-08-21T13:48:21;1.33;;;0.70;;
67737;SDS011;54534;43.612;1.572;2022-08-21T13:50:50;0.50;;;0.50;;
67737;SDS011;54534;43.612;1.572;2022-08-21T13:58:33;0.40;;;0.40;;
67737;SDS011;54534;43.612;1.572;2022-08-21T14:01:15;0.50;;;0.50;;
67737;SDS011;54534;43.612;1.572;2022-08-21T14:03:47;0.50;;;0.50;;
67737;SDS011;54534;43.612;1.572;2022-08-21T14:06:17;0.50;;;0.47;;
67737;SDS011;54534;43.612;1.572;2022-08-21T14:11:20;0.50;;;0.50;;
67737;SDS011;54534;43.612;1.572;2022-08-21T14:13:49;0.40;;;0.40;;
67737;SDS011;54534;43.612;1.572;2022-08-21T14:16:22;0.40;;;0.40;;
67737;SDS011;54534;43.612;1.572;2022-08-21T14:21:29;0.50;;;0.50;;
67737;SDS011;54534;43.612;1.572;2022-08-21T14:24:12;0.87;;;0.50;;
67737;SDS011;54534;43.612;1.572;2022-08-21T14:29:16;0.50;;;0.50;;
67737;SDS011;54534;43.612;1.572;2022-08-21T14:31:48;0.47;;;0.47;;
67737;SDS011;54534;43.612;1.572;2022-08-21T14:34:15;0.50;;;0.50;;
67737;SDS011;54534;43.612;1.572;2022-08-21T14:36:42;0.30;;;0.30;;
67737;SDS011;54534;43.612;1.572;2022-08-21T14:39:08;0.40;;;0.40;;
67737;SDS011;54534;43.612;1.572;2022-08-21T14:41:33;0.47;;;0.47;;
67737;SDS011;54534;43.612;1.572;2022-08-21T14:43:59;0.50;;;0.50;;
67737;SDS011;54534;43.612;1.572;2022-08-21T14:46:25;0.50;;;0.43;;
67737;SDS011;54534;43.612;1.572;2022-08-21T14:48:53;0.53;;;0.40;;
67737;SDS011;54534;43.612;1.572;2022-08-21T14:51:18;2.93;;;0.40;;
67737;SDS011;54534;43.612;1.572;2022-08-21T14:53:44;0.93;;;0.50;;
67737;SDS011;54534;43.612;1.572;2022-08-21T14:56:10;0.47;;;0.47;;
67737;SDS011;54534;43.612;1.572;2022-08-21T14:58:41;0.30;;;0.30;;
67737;SDS011;54534;43.612;1.572;2022-08-21T15:01:10;0.87;;;0.50;;
67737;SDS011;54534;43.612;1.572;2022-08-21T15:03:37;0.60;;;0.50;;
67737;SDS011;54534;43.612;1.572;2022-08-21T15:06:04;0.70;;;0.50;;
67737;SDS011;54534;43.612;1.572;2022-08-21T15:08:31;0.43;;;0.43;;
67737;SDS011;54534;43.612;1.572;2022-08-21T15:10:57;0.60;;;0.60;;
67737;SDS011;54534;43.612;1.572;2022-08-21T15:13:24;0.30;;;0.30;;
67737;SDS011;54534;43.612;1.572;2022-08-21T15:15:50;0.40;;;0.40;;
67737;SDS011;54534;43.612;1.572;2022-08-21T15:18:21;0.60;;;0.57;;
67737;SDS011;54534;43.612;1.572;2022-08-21T15:20:47;0.30;;;0.30;;
67737;SDS011;54534;43.612;1.572;2022-08-21T15:23:13;0.40;;;0.40;;
67737;SDS011;54534;43.612;1.572;2022-08-21T15:25:40;0.50;;;0.50;;
67737;SDS011;54534;43.612;1.572;2022-08-21T15:28:10;0.40;;;0.40;;
67737;SDS011;54534;43.612;1.572;2022-08-21T15:30:37;0.87;;;0.57;;
67737;SDS011;54534;43.612;1.572;2022-08-21T15:33:04;0.40;;;0.40;;
67737;SDS011;54534;43.612;1.572;2022-08-21T15:35:30;0.40;;;0.40;;
67737;SDS011;54534;43.612;1.572;2022-08-21T15:37:55;0.60;;;0.60;;
67737;SDS011;54534;43.612;1.572;2022-08-21T15:40:21;0.50;;;0.50;;
67737;SDS011;54534;43.612;1.572;2022-08-21T15:42:47;0.47;;;0.30;;
67737;SDS011;54534;43.612;1.572;2022-08-21T15:45:12;0.70;;;0.70;;
67737;SDS011;54534;43.612;1.572;2022-08-21T15:47:39;0.67;;;0.40;;
67737;SDS011;54534;43.612;1.572;2022-08-21T15:50:09;0.97;;;0.47;;
67737;SDS011;54534;43.612;1.572;2022-08-21T15:52:35;0.43;;;0.43;;
67737;SDS011;54534;43.612;1.572;2022-08-21T15:55:02;0.40;;;0.40;;
67737;SDS011;54534;43.612;1.572;2022-08-21T15:57:28;0.87;;;0.60;;
67737;SDS011;54534;43.612;1.572;2022-08-21T15:59:56;0.77;;;0.50;;
67737;SDS011;54534;43.612;1.572;2022-08-21T16:02:23;0.60;;;0.60;;
67737;SDS011;54534;43.612;1.572;2022-08-21T16:04:51;0.70;;;0.70;;
67737;SDS011;54534;43.612;1.572;2022-08-21T16:07:16;0.40;;;0.40;;
67737;SDS011;54534;43.612;1.572;2022-08-21T16:09:42;0.50;;;0.50;;
67737;SDS011;54534;43.612;1.572;2022-08-21T16:12:08;0.80;;;0.50;;
67737;SDS011;54534;43.612;1.572;2022-08-21T16:14:36;0.52;;;0.47;;
67737;SDS011;54534;43.612;1.572;2022-08-21T16:17:05;0.50;;;0.50;;
67737;SDS011;54534;43.612;1.572;2022-08-21T16:19:31;0.40;;;0.40;;
67737;SDS011;54534;43.612;1.572;2022-08-21T16:21:58;0.70;;;0.70;;
67737;SDS011;54534;43.612;1.572;2022-08-21T16:24:24;0.60;;;0.60;;
67737;SDS011;54534;43.612;1.572;2022-08-21T16:26:50;0.40;;;0.40;;
67737;SDS011;54534;43.612;1.572;2022-08-21T16:29:15;0.73;;;0.50;;
67737;SDS011;54534;43.612;1.572;2022-08-21T16:31:42;0.30;;;0.30;;
67737;SDS011;54534;43.612;1.572;2022-08-21T16:34:07;0.50;;;0.50;;
67737;SDS011;54534;43.612;1.572;2022-08-21T16:36:40;0.50;;;0.50;;